Details From OMRK - RAS AL KHAIMAH INTL
To ORER - ERBIL INTL
Flight Number -
Tags decoded
Created
Modified
Stats Distance 911 nm / 1,688 km
Max Altitude 0 ft / 0 m
Waypoints 6
Social Downloads 0
Likes 0
Share VATSIM

Download

Looking for another format? Having issues loading an existing format? Contact us
Advertisement - Login to hide

Notes

Requested: OMRK RAV R401 DARAX Q1 LOVID W136 BOXIX M434 UMESA L417 VUSEB ORER Unmatched points: W136 BOXIX M434 UMESA L417 VUSEB

Route

OMRK RAV R401 DARAX LOVID ORER

ID Type Via Altitude Latitude Longitude Leg Dist Tot Dist Heading (true) Name
O OMRK APT - 0 ft / 0 m 25.61335˚ 55.93883˚ - 0 nm - RAS AL KHAIMAH INTL
RAV VOR - 0 ft / 0 m 25.58843˚ 55.94633˚ 1 nm 1 nm 165° / 165° RAS AL KHAIMAH VOR-DME
IMTEN FIX R401 (AWY-HI) 0 ft / 0 m 25.88806˚ 55.91361˚ 18 nm 19 nm 354° / 354° -
DARAX FIX R401 (AWY-LO) 0 ft / 0 m 26.16167˚ 55.88333˚ 16 nm 36 nm 354° / 354° -
LOVID FIX - 0 ft / 0 m 35.12778˚ 47.47806˚ 691 nm 727 nm 323° / 319° -
O ORER APT - 0 ft / 0 m 36.23745˚ 43.95919˚ 184 nm 911 nm 292° / 290° ERBIL INTL

Altitude Profile

Advertisement - Login to hide

Weather


0- 5 10 15 20 25 30 35+ Temperature / ° C

Clouds and Precipitation
Forecast for 2018-05-22 12:00 UTC. Updated 3 hours ago

Ground ~20,000 ft ~40,000 ft Winds

OMRK

Details ICAO OMRK (RKT)
Name RAS AL KHAIMAH INTL
Region United Arab Emirates
Timezone Asia/Dubai (UTC+4.0)
Stats Elevation 102 ft / 31 m (AMSL)
Location 25.613352° 55.938831°
Runways 1
Magnetic Variation 2.074° E

METAR

OMRK 221400Z 33009KT CAVOK 36/12 Q1008 A2978

Decode

TAF

TAF OMRK 221101Z 2212/2318 34012KT CAVOK BECMG 2214/2216 VRB02KT BECMG 2307/2309 30010KT BECMG 2314/2316 VRB02KT

Decode

Departure Runways

ID Width Length Bearing (true) Bearing (mag) Surface Threshold Offset Overrun Length
16 148 ft / 45 m 12,391 ft / 3,777 m 164.83° 162.76° Asphalt 0 ft / 0 m 165 ft / 50 m
34 148 ft / 45 m 12,391 ft / 3,777 m 344.84° 342.77° Asphalt 0 ft / 0 m 165 ft / 50 m

ORER

Details ICAO ORER (EBL)
Name ERBIL INTL
Region Iraq
Timezone Asia/Baghdad (UTC+3.0)
Stats Elevation 1,341 ft / 409 m (AMSL)
Location 36.237450° 43.959191°
Runways 3
Magnetic Variation 5.274° E

METAR

ORER 221400Z 07008KT 9000 SCT040 34/09 Q1011 NOSIG

Decode

TAF

TAF ORER 220400Z 2206/2306 VRB03KT 8000 FEW030 SCT060 TEMPO 2208/2216 SHRA PROB30 TEMPO 2206/2212 -TSSHRA FEW025CB

Decode

Destination Runways

ID Width Length Bearing (true) Bearing (mag) Surface Threshold Offset Overrun Length
15 95 ft / 29 m 9,209 ft / 2,807 m 151.77° 146.50° Asphalt 0 ft / 0 m 185 ft / 56 m
15L 105 ft / 32 m 4,089 ft / 1,246 m 151.76° 146.49° Asphalt 0 ft / 0 m 0 ft / 0 m
18 225 ft / 69 m 13,864 ft / 4,226 m 180.44° 175.17° Asphalt 0 ft / 0 m 0 ft / 0 m
33 95 ft / 29 m 9,209 ft / 2,807 m 331.78° 326.51° Asphalt 0 ft / 0 m 185 ft / 56 m
33R 105 ft / 32 m 4,089 ft / 1,246 m 331.76° 326.49° Asphalt 0 ft / 0 m 0 ft / 0 m
36 225 ft / 69 m 13,864 ft / 4,226 m 0.44° 355.17° Asphalt 0 ft / 0 m 0 ft / 0 m